Terminal Aerodrome Forecast
Issued by NWS

Home | Current Version | Previous Version | Text Only | Print | Product List | Glossary On
Versions: 1 2 3 4 5 6 7 8 9 10 11 12 13 14 15 16 17 18
111
FTUS41 KGYX 081725
TAFHIE
TAF
KHIE 081725Z 0818/0918 08017G26KT P6SM SCT050 BKN100
     FM082200 09010G16KT 1 1/2SM -SN BR OVC020
     FM091400 07002KT 4SM -SHSN BR OVC035
     FM091700 06003KT P6SM OVC050=

USA.gov is the U.S. government's official web portal to all federal, state and local government web resources and services.